Apache Junction, Arizona
Current Conditions -  °F | °C
As of 12:55 AM on Thursday 23 Oct 2014 (Local Time) from KIWA Reporting Station
Clear Clear  
Wind Chill: 64°   Ceiling: Unl
Heat Index: 64°   Visibility: 10mi
Dew Point: 50°   Wind: 6mph
Humidity: 59%   Direction: 120°ESE
Pressure: 29.99"   Gusts: NA
Location:  33.42°N, 111.54°W
Report Text: KIWA 230755Z AUTO 12005KT 10SM CLR 18/10 A2999 RMK AO2
Loading
Personal Weather Stations






























Interactive Weather Map
Tropical Storm Tracking
New forecast layout! Learn more

10-Day Weather Forecast

Advertisements
Track Severe Weather on mobile